sensor_id;sensor_type;location;lat;lon;timestamp;P1;durP1;ratioP1;P2;durP2;ratioP2
23115;SDS011;11727;52.134;5.052;2023-04-08T00:00:13;25.20;;;9.68;;
23115;SDS011;11727;52.134;5.052;2023-04-08T00:02:39;23.30;;;10.02;;
23115;SDS011;11727;52.134;5.052;2023-04-08T00:05:05;30.25;;;10.00;;
23115;SDS011;11727;52.134;5.052;2023-04-08T00:07:32;30.35;;;9.40;;
23115;SDS011;11727;52.134;5.052;2023-04-08T00:09:57;26.65;;;10.48;;
23115;SDS011;11727;52.134;5.052;2023-04-08T00:12:23;33.33;;;11.23;;
23115;SDS011;11727;52.134;5.052;2023-04-08T00:14:49;31.60;;;10.73;;
23115;SDS011;11727;52.134;5.052;2023-04-08T00:17:14;20.30;;;8.45;;
23115;SDS011;11727;52.134;5.052;2023-04-08T00:19:40;23.73;;;9.18;;
23115;SDS011;11727;52.134;5.052;2023-04-08T00:22:06;20.92;;;8.93;;
23115;SDS011;11727;52.134;5.052;2023-04-08T00:24:32;22.70;;;9.30;;
23115;SDS011;11727;52.134;5.052;2023-04-08T00:26:58;20.15;;;7.85;;
23115;SDS011;11727;52.134;5.052;2023-04-08T00:29:23;21.08;;;9.00;;
23115;SDS011;11727;52.134;5.052;2023-04-08T00:31:49;22.13;;;9.00;;
23115;SDS011;11727;52.134;5.052;2023-04-08T00:34:15;28.40;;;9.30;;
23115;SDS011;11727;52.134;5.052;2023-04-08T00:36:41;23.80;;;9.30;;
23115;SDS011;11727;52.134;5.052;2023-04-08T00:39:06;19.02;;;8.77;;
23115;SDS011;11727;52.134;5.052;2023-04-08T00:41:33;18.77;;;8.40;;
23115;SDS011;11727;52.134;5.052;2023-04-08T00:43:59;19.45;;;8.40;;
23115;SDS011;11727;52.134;5.052;2023-04-08T00:46:25;27.02;;;9.75;;
23115;SDS011;11727;52.134;5.052;2023-04-08T00:48:51;21.60;;;8.90;;
23115;SDS011;11727;52.134;5.052;2023-04-08T00:51:18;24.95;;;8.77;;
23115;SDS011;11727;52.134;5.052;2023-04-08T00:53:44;24.80;;;9.20;;
23115;SDS011;11727;52.134;5.052;2023-04-08T00:56:10;22.50;;;9.13;;
23115;SDS011;11727;52.134;5.052;2023-04-08T00:58:35;27.48;;;9.40;;
23115;SDS011;11727;52.134;5.052;2023-04-08T01:01:04;25.70;;;9.32;;
23115;SDS011;11727;52.134;5.052;2023-04-08T01:03:49;24.75;;;8.55;;
23115;SDS011;11727;52.134;5.052;2023-04-08T01:09:18;24.55;;;8.95;;
23115;SDS011;11727;52.134;5.052;2023-04-08T01:11:48;28.85;;;10.88;;
23115;SDS011;11727;52.134;5.052;2023-04-08T01:14:16;22.83;;;9.82;;
23115;SDS011;11727;52.134;5.052;2023-04-08T01:16:45;28.50;;;9.55;;
23115;SDS011;11727;52.134;5.052;2023-04-08T01:19:13;29.52;;;11.05;;
23115;SDS011;11727;52.134;5.052;2023-04-08T01:21:48;30.65;;;10.73;;
23115;SDS011;11727;52.134;5.052;2023-04-08T01:24:32;24.27;;;9.02;;
23115;SDS011;11727;52.134;5.052;2023-04-08T01:27:03;29.92;;;11.68;;
23115;SDS011;11727;52.134;5.052;2023-04-08T01:29:30;31.60;;;10.50;;
23115;SDS011;11727;52.134;5.052;2023-04-08T01:31:58;34.42;;;10.75;;
23115;SDS011;11727;52.134;5.052;2023-04-08T01:34:25;32.33;;;9.82;;
23115;SDS011;11727;52.134;5.052;2023-04-08T01:36:52;22.00;;;8.70;;
23115;SDS011;11727;52.134;5.052;2023-04-08T01:39:19;27.95;;;10.13;;
23115;SDS011;11727;52.134;5.052;2023-04-08T01:41:49;28.42;;;10.25;;
23115;SDS011;11727;52.134;5.052;2023-04-08T01:44:18;33.55;;;10.15;;
23115;SDS011;11727;52.134;5.052;2023-04-08T01:46:46;26.73;;;9.75;;
23115;SDS011;11727;52.134;5.052;2023-04-08T01:49:13;21.73;;;8.77;;
23115;SDS011;11727;52.134;5.052;2023-04-08T01:51:40;26.20;;;9.23;;
23115;SDS011;11727;52.134;5.052;2023-04-08T01:54:06;42.10;;;10.50;;
23115;SDS011;11727;52.134;5.052;2023-04-08T01:56:32;28.30;;;8.98;;
23115;SDS011;11727;52.134;5.052;2023-04-08T01:59:03;22.85;;;9.07;;
23115;SDS011;11727;52.134;5.052;2023-04-08T02:01:35;20.13;;;8.60;;
23115;SDS011;11727;52.134;5.052;2023-04-08T02:04:01;23.55;;;9.25;;
23115;SDS011;11727;52.134;5.052;2023-04-08T02:06:28;28.33;;;7.57;;
23115;SDS011;11727;52.134;5.052;2023-04-08T02:08:55;23.50;;;7.80;;
23115;SDS011;11727;52.134;5.052;2023-04-08T02:11:21;27.17;;;7.40;;
23115;SDS011;11727;52.134;5.052;2023-04-08T02:13:47;25.95;;;8.05;;
23115;SDS011;11727;52.134;5.052;2023-04-08T02:16:18;20.60;;;7.55;;
23115;SDS011;11727;52.134;5.052;2023-04-08T02:18:54;15.02;;;6.20;;
23115;SDS011;11727;52.134;5.052;2023-04-08T02:21:26;26.83;;;6.63;;
23115;SDS011;11727;52.134;5.052;2023-04-08T02:23:57;21.65;;;7.20;;
23115;SDS011;11727;52.134;5.052;2023-04-08T02:26:25;17.85;;;7.40;;
23115;SDS011;11727;52.134;5.052;2023-04-08T02:28:51;18.67;;;7.18;;
23115;SDS011;11727;52.134;5.052;2023-04-08T02:33:45;25.55;;;6.40;;
23115;SDS011;11727;52.134;5.052;2023-04-08T02:36:12;19.67;;;6.05;;
23115;SDS011;11727;52.134;5.052;2023-04-08T02:38:39;14.10;;;5.60;;
23115;SDS011;11727;52.134;5.052;2023-04-08T02:41:05;9.95;;;5.30;;
23115;SDS011;11727;52.134;5.052;2023-04-08T02:43:30;12.27;;;6.18;;
23115;SDS011;11727;52.134;5.052;2023-04-08T02:45:59;13.98;;;5.55;;
23115;SDS011;11727;52.134;5.052;2023-04-08T02:48:29;14.27;;;5.75;;
23115;SDS011;11727;52.134;5.052;2023-04-08T02:50:55;9.73;;;4.95;;
23115;SDS011;11727;52.134;5.052;2023-04-08T02:53:21;13.07;;;5.00;;
23115;SDS011;11727;52.134;5.052;2023-04-08T02:55:47;13.15;;;5.97;;
23115;SDS011;11727;52.134;5.052;2023-04-08T02:58:13;9.43;;;4.85;;
23115;SDS011;11727;52.134;5.052;2023-04-08T03:00:39;13.75;;;5.43;;
23115;SDS011;11727;52.134;5.052;2023-04-08T03:03:05;14.35;;;6.25;;
23115;SDS011;11727;52.134;5.052;2023-04-08T03:05:31;16.13;;;5.88;;
23115;SDS011;11727;52.134;5.052;2023-04-08T03:07:57;13.88;;;6.97;;
23115;SDS011;11727;52.134;5.052;2023-04-08T03:10:22;12.35;;;6.30;;
23115;SDS011;11727;52.134;5.052;2023-04-08T03:12:48;14.32;;;6.22;;
23115;SDS011;11727;52.134;5.052;2023-04-08T03:15:14;20.77;;;7.03;;
23115;SDS011;11727;52.134;5.052;2023-04-08T03:17:39;14.38;;;6.07;;
23115;SDS011;11727;52.134;5.052;2023-04-08T03:20:05;13.75;;;6.55;;
23115;SDS011;11727;52.134;5.052;2023-04-08T03:22:32;12.88;;;6.65;;
23115;SDS011;11727;52.134;5.052;2023-04-08T03:24:58;13.73;;;6.28;;
23115;SDS011;11727;52.134;5.052;2023-04-08T03:27:23;11.55;;;6.03;;
23115;SDS011;11727;52.134;5.052;2023-04-08T03:29:50;15.00;;;7.32;;
23115;SDS011;11727;52.134;5.052;2023-04-08T03:32:17;18.27;;;7.72;;
23115;SDS011;11727;52.134;5.052;2023-04-08T03:34:42;14.48;;;7.15;;
23115;SDS011;11727;52.134;5.052;2023-04-08T03:37:08;17.27;;;7.60;;
23115;SDS011;11727;52.134;5.052;2023-04-08T03:39:34;20.73;;;7.90;;
23115;SDS011;11727;52.134;5.052;2023-04-08T03:42:00;26.83;;;7.72;;
23115;SDS011;11727;52.134;5.052;2023-04-08T03:44:27;28.77;;;8.90;;
23115;SDS011;11727;52.134;5.052;2023-04-08T03:46:52;26.65;;;9.93;;
23115;SDS011;11727;52.134;5.052;2023-04-08T03:49:18;22.70;;;9.18;;
23115;SDS011;11727;52.134;5.052;2023-04-08T03:51:44;27.30;;;10.20;;
23115;SDS011;11727;52.134;5.052;2023-04-08T03:54:10;29.75;;;10.05;;
23115;SDS011;11727;52.134;5.052;2023-04-08T03:56:35;24.10;;;10.20;;
23115;SDS011;11727;52.134;5.052;2023-04-08T03:59:01;32.17;;;11.07;;
23115;SDS011;11727;52.134;5.052;2023-04-08T04:01:26;36.17;;;11.63;;
23115;SDS011;11727;52.134;5.052;2023-04-08T04:03:53;28.17;;;11.45;;
23115;SDS011;11727;52.134;5.052;2023-04-08T04:06:18;28.50;;;12.00;;
23115;SDS011;11727;52.134;5.052;2023-04-08T04:08:44;34.33;;;13.38;;
23115;SDS011;11727;52.134;5.052;2023-04-08T04:11:10;44.35;;;10.55;;
23115;SDS011;11727;52.134;5.052;2023-04-08T04:13:36;32.08;;;9.35;;
23115;SDS011;11727;52.134;5.052;2023-04-08T04:16:01;29.35;;;11.57;;
23115;SDS011;11727;52.134;5.052;2023-04-08T04:18:27;27.67;;;11.88;;
23115;SDS011;11727;52.134;5.052;2023-04-08T04:20:52;24.90;;;10.48;;
23115;SDS011;11727;52.134;5.052;2023-04-08T04:23:18;29.77;;;10.10;;
23115;SDS011;11727;52.134;5.052;2023-04-08T04:25:44;24.65;;;10.55;;
23115;SDS011;11727;52.134;5.052;2023-04-08T04:28:09;38.10;;;10.88;;
23115;SDS011;11727;52.134;5.052;2023-04-08T04:30:36;22.13;;;9.32;;
23115;SDS011;11727;52.134;5.052;2023-04-08T04:33:04;24.00;;;8.80;;
23115;SDS011;11727;52.134;5.052;2023-04-08T04:35:30;41.10;;;10.38;;
23115;SDS011;11727;52.134;5.052;2023-04-08T04:37:56;34.50;;;11.13;;
23115;SDS011;11727;52.134;5.052;2023-04-08T04:40:21;22.58;;;10.50;;
23115;SDS011;11727;52.134;5.052;2023-04-08T04:42:48;26.40;;;10.75;;
23115;SDS011;11727;52.134;5.052;2023-04-08T04:45:13;27.85;;;12.32;;
23115;SDS011;11727;52.134;5.052;2023-04-08T04:47:39;26.85;;;11.55;;
23115;SDS011;11727;52.134;5.052;2023-04-08T04:50:05;31.00;;;12.38;;
23115;SDS011;11727;52.134;5.052;2023-04-08T04:52:31;39.03;;;12.73;;
23115;SDS011;11727;52.134;5.052;2023-04-08T04:54:57;31.73;;;11.57;;
23115;SDS011;11727;52.134;5.052;2023-04-08T04:57:22;37.63;;;13.07;;
23115;SDS011;11727;52.134;5.052;2023-04-08T04:59:48;37.22;;;12.35;;
23115;SDS011;11727;52.134;5.052;2023-04-08T05:02:14;43.80;;;12.02;;
23115;SDS011;11727;52.134;5.052;2023-04-08T05:04:39;35.92;;;12.00;;
23115;SDS011;11727;52.134;5.052;2023-04-08T05:07:05;31.10;;;12.68;;
23115;SDS011;11727;52.134;5.052;2023-04-08T05:09:30;34.00;;;12.20;;
23115;SDS011;11727;52.134;5.052;2023-04-08T05:11:56;36.88;;;14.43;;
23115;SDS011;11727;52.134;5.052;2023-04-08T05:14:22;34.85;;;12.98;;
23115;SDS011;11727;52.134;5.052;2023-04-08T05:16:47;33.17;;;13.25;;
23115;SDS011;11727;52.134;5.052;2023-04-08T05:19:13;32.97;;;12.23;;
23115;SDS011;11727;52.134;5.052;2023-04-08T05:21:38;33.05;;;12.93;;
23115;SDS011;11727;52.134;5.052;2023-04-08T05:24:04;34.10;;;14.27;;
23115;SDS011;11727;52.134;5.052;2023-04-08T05:26:30;32.08;;;14.88;;
23115;SDS011;11727;52.134;5.052;2023-04-08T05:28:55;31.73;;;13.43;;
23115;SDS011;11727;52.134;5.052;2023-04-08T05:31:21;35.22;;;15.10;;
23115;SDS011;11727;52.134;5.052;2023-04-08T05:33:46;32.63;;;14.35;;
23115;SDS011;11727;52.134;5.052;2023-04-08T05:36:12;33.17;;;14.18;;
23115;SDS011;11727;52.134;5.052;2023-04-08T05:38:39;35.72;;;15.27;;
23115;SDS011;11727;52.134;5.052;2023-04-08T05:41:05;34.22;;;14.45;;
23115;SDS011;11727;52.134;5.052;2023-04-08T05:43:33;33.17;;;15.23;;
23115;SDS011;11727;52.134;5.052;2023-04-08T05:45:59;38.53;;;15.82;;
23115;SDS011;11727;52.134;5.052;2023-04-08T05:48:35;32.85;;;14.25;;
23115;SDS011;11727;52.134;5.052;2023-04-08T05:51:01;30.02;;;13.70;;
23115;SDS011;11727;52.134;5.052;2023-04-08T05:53:27;41.63;;;13.77;;
23115;SDS011;11727;52.134;5.052;2023-04-08T05:55:53;37.55;;;14.48;;
23115;SDS011;11727;52.134;5.052;2023-04-08T05:58:18;34.58;;;14.48;;
23115;SDS011;11727;52.134;5.052;2023-04-08T06:00:44;37.78;;;13.30;;
23115;SDS011;11727;52.134;5.052;2023-04-08T06:03:10;24.13;;;11.63;;
23115;SDS011;11727;52.134;5.052;2023-04-08T06:05:35;32.15;;;11.52;;
23115;SDS011;11727;52.134;5.052;2023-04-08T06:08:01;18.58;;;9.73;;
23115;SDS011;11727;52.134;5.052;2023-04-08T06:10:27;18.85;;;9.02;;
23115;SDS011;11727;52.134;5.052;2023-04-08T06:12:52;17.10;;;8.65;;
23115;SDS011;11727;52.134;5.052;2023-04-08T06:15:18;17.10;;;8.82;;
23115;SDS011;11727;52.134;5.052;2023-04-08T06:17:43;19.92;;;9.43;;
23115;SDS011;11727;52.134;5.052;2023-04-08T06:20:09;19.17;;;9.63;;
23115;SDS011;11727;52.134;5.052;2023-04-08T06:22:35;19.15;;;8.95;;
23115;SDS011;11727;52.134;5.052;2023-04-08T06:25:01;21.83;;;10.20;;
23115;SDS011;11727;52.134;5.052;2023-04-08T06:27:27;22.15;;;10.50;;
23115;SDS011;11727;52.134;5.052;2023-04-08T06:29:53;19.17;;;9.38;;
23115;SDS011;11727;52.134;5.052;2023-04-08T06:32:19;20.05;;;9.50;;
23115;SDS011;11727;52.134;5.052;2023-04-08T06:34:45;19.23;;;9.20;;
23115;SDS011;11727;52.134;5.052;2023-04-08T06:37:11;22.95;;;9.75;;
23115;SDS011;11727;52.134;5.052;2023-04-08T06:39:37;21.38;;;10.85;;
23115;SDS011;11727;52.134;5.052;2023-04-08T06:42:02;17.52;;;9.35;;
23115;SDS011;11727;52.134;5.052;2023-04-08T06:44:28;24.98;;;9.70;;
23115;SDS011;11727;52.134;5.052;2023-04-08T06:46:54;19.92;;;9.40;;
23115;SDS011;11727;52.134;5.052;2023-04-08T06:49:20;22.05;;;10.48;;
23115;SDS011;11727;52.134;5.052;2023-04-08T06:51:45;18.08;;;9.40;;
23115;SDS011;11727;52.134;5.052;2023-04-08T06:54:11;20.88;;;9.98;;
23115;SDS011;11727;52.134;5.052;2023-04-08T06:56:36;18.67;;;9.73;;
23115;SDS011;11727;52.134;5.052;2023-04-08T06:59:02;18.85;;;9.73;;
23115;SDS011;11727;52.134;5.052;2023-04-08T07:01:31;17.70;;;9.82;;
23115;SDS011;11727;52.134;5.052;2023-04-08T07:03:57;18.02;;;9.85;;
23115;SDS011;11727;52.134;5.052;2023-04-08T07:06:22;17.38;;;8.55;;
23115;SDS011;11727;52.134;5.052;2023-04-08T07:08:48;17.38;;;8.50;;
23115;SDS011;11727;52.134;5.052;2023-04-08T07:11:13;16.52;;;9.05;;
23115;SDS011;11727;52.134;5.052;2023-04-08T07:13:39;17.52;;;8.80;;
23115;SDS011;11727;52.134;5.052;2023-04-08T07:16:05;19.63;;;9.27;;
23115;SDS011;11727;52.134;5.052;2023-04-08T07:18:31;13.80;;;7.80;;
23115;SDS011;11727;52.134;5.052;2023-04-08T07:20:57;14.88;;;8.20;;
23115;SDS011;11727;52.134;5.052;2023-04-08T07:25:50;15.05;;;8.25;;
23115;SDS011;11727;52.134;5.052;2023-04-08T07:28:16;14.48;;;8.10;;
23115;SDS011;11727;52.134;5.052;2023-04-08T07:30:42;13.70;;;7.75;;
23115;SDS011;11727;52.134;5.052;2023-04-08T07:33:07;14.35;;;7.80;;
23115;SDS011;11727;52.134;5.052;2023-04-08T07:35:33;15.55;;;7.45;;
23115;SDS011;11727;52.134;5.052;2023-04-08T07:37:59;14.75;;;7.90;;
23115;SDS011;11727;52.134;5.052;2023-04-08T07:40:24;13.82;;;7.15;;
23115;SDS011;11727;52.134;5.052;2023-04-08T07:42:51;11.30;;;6.40;;
23115;SDS011;11727;52.134;5.052;2023-04-08T07:45:20;10.75;;;5.88;;
23115;SDS011;11727;52.134;5.052;2023-04-08T07:47:46;9.82;;;5.95;;
23115;SDS011;11727;52.134;5.052;2023-04-08T07:50:12;14.73;;;6.70;;
23115;SDS011;11727;52.134;5.052;2023-04-08T07:52:38;10.77;;;6.05;;
23115;SDS011;11727;52.134;5.052;2023-04-08T07:55:03;9.23;;;5.40;;
23115;SDS011;11727;52.134;5.052;2023-04-08T07:57:29;8.80;;;5.28;;
23115;SDS011;11727;52.134;5.052;2023-04-08T07:59:55;8.25;;;4.97;;
23115;SDS011;11727;52.134;5.052;2023-04-08T08:02:21;10.20;;;5.82;;
23115;SDS011;11727;52.134;5.052;2023-04-08T08:04:47;8.57;;;5.18;;
23115;SDS011;11727;52.134;5.052;2023-04-08T08:07:15;9.52;;;4.85;;
23115;SDS011;11727;52.134;5.052;2023-04-08T08:09:41;10.68;;;5.97;;
23115;SDS011;11727;52.134;5.052;2023-04-08T08:12:07;9.55;;;5.65;;
23115;SDS011;11727;52.134;5.052;2023-04-08T08:14:32;10.07;;;5.88;;
23115;SDS011;11727;52.134;5.052;2023-04-08T08:16:58;10.00;;;5.38;;
23115;SDS011;11727;52.134;5.052;2023-04-08T08:19:23;7.75;;;4.88;;
23115;SDS011;11727;52.134;5.052;2023-04-08T08:21:49;9.05;;;5.25;;
23115;SDS011;11727;52.134;5.052;2023-04-08T08:24:16;8.85;;;5.85;;
23115;SDS011;11727;52.134;5.052;2023-04-08T08:26:45;11.88;;;5.30;;
23115;SDS011;11727;52.134;5.052;2023-04-08T08:29:13;7.88;;;4.90;;
23115;SDS011;11727;52.134;5.052;2023-04-08T08:31:38;10.85;;;5.72;;
23115;SDS011;11727;52.134;5.052;2023-04-08T08:34:04;9.40;;;5.10;;
23115;SDS011;11727;52.134;5.052;2023-04-08T08:36:29;7.90;;;4.22;;
23115;SDS011;11727;52.134;5.052;2023-04-08T08:38:55;9.70;;;5.53;;
23115;SDS011;11727;52.134;5.052;2023-04-08T08:41:21;11.82;;;5.22;;
23115;SDS011;11727;52.134;5.052;2023-04-08T08:43:46;7.97;;;5.10;;
23115;SDS011;11727;52.134;5.052;2023-04-08T08:46:14;8.75;;;4.97;;
23115;SDS011;11727;52.134;5.052;2023-04-08T08:48:41;8.98;;;5.25;;
23115;SDS011;11727;52.134;5.052;2023-04-08T08:51:10;10.13;;;4.88;;
23115;SDS011;11727;52.134;5.052;2023-04-08T08:53:36;7.63;;;4.82;;
23115;SDS011;11727;52.134;5.052;2023-04-08T08:56:03;11.35;;;5.15;;
23115;SDS011;11727;52.134;5.052;2023-04-08T08:58:32;12.27;;;4.60;;
23115;SDS011;11727;52.134;5.052;2023-04-08T09:00:58;7.35;;;4.50;;
23115;SDS011;11727;52.134;5.052;2023-04-08T09:03:25;10.35;;;5.75;;
23115;SDS011;11727;52.134;5.052;2023-04-08T09:05:55;12.00;;;5.35;;
23115;SDS011;11727;52.134;5.052;2023-04-08T09:10:52;14.48;;;5.72;;
23115;SDS011;11727;52.134;5.052;2023-04-08T09:13:18;7.80;;;5.07;;
23115;SDS011;11727;52.134;5.052;2023-04-08T09:15:59;8.75;;;5.00;;
23115;SDS011;11727;52.134;5.052;2023-04-08T09:18:29;8.80;;;4.25;;
23115;SDS011;11727;52.134;5.052;2023-04-08T09:20:57;9.40;;;5.03;;
23115;SDS011;11727;52.134;5.052;2023-04-08T09:23:27;8.88;;;5.10;;
23115;SDS011;11727;52.134;5.052;2023-04-08T09:26:16;8.05;;;5.13;;
23115;SDS011;11727;52.134;5.052;2023-04-08T09:28:59;13.57;;;4.93;;
23115;SDS011;11727;52.134;5.052;2023-04-08T09:31:36;8.27;;;5.18;;
23115;SDS011;11727;52.134;5.052;2023-04-08T09:34:12;9.13;;;5.53;;
23115;SDS011;11727;52.134;5.052;2023-04-08T09:36:40;10.55;;;5.45;;
23115;SDS011;11727;52.134;5.052;2023-04-08T09:39:06;8.52;;;4.75;;
23115;SDS011;11727;52.134;5.052;2023-04-08T09:41:36;8.23;;;4.60;;
23115;SDS011;11727;52.134;5.052;2023-04-08T09:44:07;9.55;;;4.53;;
23115;SDS011;11727;52.134;5.052;2023-04-08T09:51:47;9.88;;;4.90;;
23115;SDS011;11727;52.134;5.052;2023-04-08T09:54:20;8.00;;;4.47;;
23115;SDS011;11727;52.134;5.052;2023-04-08T09:57:04;10.48;;;4.60;;
23115;SDS011;11727;52.134;5.052;2023-04-08T09:59:37;7.80;;;4.40;;
23115;SDS011;11727;52.134;5.052;2023-04-08T10:02:09;7.65;;;4.32;;
23115;SDS011;11727;52.134;5.052;2023-04-08T10:04:38;9.90;;;4.90;;
23115;SDS011;11727;52.134;5.052;2023-04-08T10:07:09;8.35;;;4.55;;
23115;SDS011;11727;52.134;5.052;2023-04-08T10:09:35;8.52;;;4.82;;
23115;SDS011;11727;52.134;5.052;2023-04-08T10:12:07;10.10;;;5.70;;
23115;SDS011;11727;52.134;5.052;2023-04-08T10:14:33;11.18;;;5.43;;
23115;SDS011;11727;52.134;5.052;2023-04-08T10:19:52;7.75;;;4.47;;
23115;SDS011;11727;52.134;5.052;2023-04-08T10:22:44;12.38;;;5.10;;
23115;SDS011;11727;52.134;5.052;2023-04-08T10:27:41;8.75;;;5.65;;
23115;SDS011;11727;52.134;5.052;2023-04-08T10:32:54;8.45;;;4.38;;
23115;SDS011;11727;52.134;5.052;2023-04-08T10:35:36;6.13;;;4.32;;
23115;SDS011;11727;52.134;5.052;2023-04-08T10:38:06;8.85;;;5.13;;
23115;SDS011;11727;52.134;5.052;2023-04-08T10:40:36;6.10;;;4.20;;
23115;SDS011;11727;52.134;5.052;2023-04-08T10:43:06;10.13;;;4.50;;
23115;SDS011;11727;52.134;5.052;2023-04-08T10:45:37;9.23;;;4.82;;
23115;SDS011;11727;52.134;5.052;2023-04-08T10:48:16;7.45;;;4.20;;
23115;SDS011;11727;52.134;5.052;2023-04-08T10:50:54;7.18;;;4.35;;
23115;SDS011;11727;52.134;5.052;2023-04-08T10:53:28;6.78;;;4.05;;
23115;SDS011;11727;52.134;5.052;2023-04-08T10:56:08;10.88;;;5.45;;
23115;SDS011;11727;52.134;5.052;2023-04-08T10:58:46;8.88;;;4.50;;
23115;SDS011;11727;52.134;5.052;2023-04-08T11:01:15;9.05;;;4.72;;
23115;SDS011;11727;52.134;5.052;2023-04-08T11:03:41;9.27;;;4.70;;
23115;SDS011;11727;52.134;5.052;2023-04-08T11:06:07;7.78;;;4.18;;
23115;SDS011;11727;52.134;5.052;2023-04-08T11:08:34;10.02;;;4.47;;
23115;SDS011;11727;52.134;5.052;2023-04-08T11:11:03;10.07;;;4.38;;
23115;SDS011;11727;52.134;5.052;2023-04-08T11:13:35;7.95;;;4.38;;
23115;SDS011;11727;52.134;5.052;2023-04-08T11:16:09;6.85;;;3.67;;
23115;SDS011;11727;52.134;5.052;2023-04-08T11:18:35;9.57;;;4.55;;
23115;SDS011;11727;52.134;5.052;2023-04-08T11:23:28;8.70;;;4.22;;
23115;SDS011;11727;52.134;5.052;2023-04-08T11:25:54;9.63;;;4.68;;
23115;SDS011;11727;52.134;5.052;2023-04-08T11:28:20;8.02;;;4.60;;
23115;SDS011;11727;52.134;5.052;2023-04-08T11:30:46;12.70;;;4.80;;
23115;SDS011;11727;52.134;5.052;2023-04-08T11:33:12;7.25;;;3.95;;
23115;SDS011;11727;52.134;5.052;2023-04-08T11:35:42;9.10;;;4.93;;
23115;SDS011;11727;52.134;5.052;2023-04-08T11:38:08;9.82;;;4.95;;
23115;SDS011;11727;52.134;5.052;2023-04-08T11:40:36;7.47;;;4.70;;
23115;SDS011;11727;52.134;5.052;2023-04-08T11:43:09;10.15;;;4.78;;
23115;SDS011;11727;52.134;5.052;2023-04-08T11:45:38;6.68;;;3.70;;
23115;SDS011;11727;52.134;5.052;2023-04-08T11:48:10;7.68;;;4.32;;
23115;SDS011;11727;52.134;5.052;2023-04-08T11:50:38;7.05;;;4.22;;
23115;SDS011;11727;52.134;5.052;2023-04-08T11:53:14;8.57;;;4.72;;
23115;SDS011;11727;52.134;5.052;2023-04-08T11:55:44;8.80;;;4.53;;
23115;SDS011;11727;52.134;5.052;2023-04-08T11:58:09;9.43;;;4.53;;
23115;SDS011;11727;52.134;5.052;2023-04-08T12:00:35;13.85;;;4.68;;
23115;SDS011;11727;52.134;5.052;2023-04-08T12:03:01;9.05;;;4.22;;
23115;SDS011;11727;52.134;5.052;2023-04-08T12:05:27;10.50;;;5.10;;
23115;SDS011;11727;52.134;5.052;2023-04-08T12:07:52;5.80;;;3.90;;
23115;SDS011;11727;52.134;5.052;2023-04-08T12:10:18;10.75;;;5.22;;
23115;SDS011;11727;52.134;5.052;2023-04-08T12:12:44;8.98;;;4.80;;
23115;SDS011;11727;52.134;5.052;2023-04-08T12:15:10;9.00;;;5.03;;
23115;SDS011;11727;52.134;5.052;2023-04-08T12:17:36;7.75;;;5.10;;
23115;SDS011;11727;52.134;5.052;2023-04-08T12:20:03;10.70;;;5.50;;
23115;SDS011;11727;52.134;5.052;2023-04-08T12:22:30;9.68;;;5.03;;
23115;SDS011;11727;52.134;5.052;2023-04-08T12:24:55;8.65;;;5.35;;
23115;SDS011;11727;52.134;5.052;2023-04-08T12:27:21;14.35;;;5.25;;
23115;SDS011;11727;52.134;5.052;2023-04-08T12:29:47;9.55;;;5.53;;
23115;SDS011;11727;52.134;5.052;2023-04-08T12:32:13;9.25;;;4.93;;
23115;SDS011;11727;52.134;5.052;2023-04-08T12:34:39;9.27;;;4.90;;
23115;SDS011;11727;52.134;5.052;2023-04-08T12:37:05;15.88;;;5.93;;
23115;SDS011;11727;52.134;5.052;2023-04-08T12:39:31;9.00;;;5.15;;
23115;SDS011;11727;52.134;5.052;2023-04-08T12:41:56;13.32;;;5.07;;
23115;SDS011;11727;52.134;5.052;2023-04-08T12:44:22;9.55;;;5.68;;
23115;SDS011;11727;52.134;5.052;2023-04-08T12:46:47;11.80;;;5.40;;
23115;SDS011;11727;52.134;5.052;2023-04-08T12:49:13;9.10;;;5.72;;
23115;SDS011;11727;52.134;5.052;2023-04-08T12:51:38;11.63;;;5.82;;
23115;SDS011;11727;52.134;5.052;2023-04-08T12:54:04;9.10;;;4.93;;
23115;SDS011;11727;52.134;5.052;2023-04-08T12:56:30;9.77;;;5.80;;
23115;SDS011;11727;52.134;5.052;2023-04-08T12:58:56;8.50;;;5.07;;
23115;SDS011;11727;52.134;5.052;2023-04-08T13:01:22;13.80;;;5.30;;
23115;SDS011;11727;52.134;5.052;2023-04-08T13:03:48;11.77;;;5.53;;
23115;SDS011;11727;52.134;5.052;2023-04-08T13:06:14;8.20;;;4.28;;
23115;SDS011;11727;52.134;5.052;2023-04-08T13:08:40;10.02;;;5.35;;
23115;SDS011;11727;52.134;5.052;2023-04-08T13:11:07;8.68;;;4.97;;
23115;SDS011;11727;52.134;5.052;2023-04-08T13:13:32;13.07;;;5.55;;
23115;SDS011;11727;52.134;5.052;2023-04-08T13:15:58;9.15;;;4.95;;
23115;SDS011;11727;52.134;5.052;2023-04-08T13:18:24;11.48;;;5.57;;
23115;SDS011;11727;52.134;5.052;2023-04-08T13:20:50;10.63;;;5.70;;
23115;SDS011;11727;52.134;5.052;2023-04-08T13:23:16;10.00;;;5.25;;
23115;SDS011;11727;52.134;5.052;2023-04-08T13:25:42;10.60;;;5.90;;
23115;SDS011;11727;52.134;5.052;2023-04-08T13:28:09;12.10;;;5.57;;
23115;SDS011;11727;52.134;5.052;2023-04-08T13:30:35;8.93;;;4.88;;
23115;SDS011;11727;52.134;5.052;2023-04-08T13:33:01;13.15;;;5.55;;
23115;SDS011;11727;52.134;5.052;2023-04-08T13:35:27;17.48;;;6.50;;
23115;SDS011;11727;52.134;5.052;2023-04-08T13:37:52;14.07;;;6.53;;
23115;SDS011;11727;52.134;5.052;2023-04-08T13:40:18;12.65;;;6.20;;
23115;SDS011;11727;52.134;5.052;2023-04-08T13:42:44;10.63;;;6.10;;
23115;SDS011;11727;52.134;5.052;2023-04-08T13:45:09;11.07;;;5.53;;
23115;SDS011;11727;52.134;5.052;2023-04-08T13:47:35;12.02;;;5.63;;
23115;SDS011;11727;52.134;5.052;2023-04-08T13:50:01;14.57;;;5.90;;
23115;SDS011;11727;52.134;5.052;2023-04-08T13:52:26;9.70;;;5.32;;
23115;SDS011;11727;52.134;5.052;2023-04-08T13:54:52;8.65;;;4.88;;
23115;SDS011;11727;52.134;5.052;2023-04-08T13:57:18;10.88;;;5.32;;
23115;SDS011;11727;52.134;5.052;2023-04-08T13:59:43;6.90;;;4.20;;
23115;SDS011;11727;52.134;5.052;2023-04-08T14:02:09;10.63;;;4.93;;
23115;SDS011;11727;52.134;5.052;2023-04-08T14:04:35;9.98;;;4.63;;
23115;SDS011;11727;52.134;5.052;2023-04-08T14:07:00;8.70;;;4.85;;
23115;SDS011;11727;52.134;5.052;2023-04-08T14:09:26;7.85;;;3.97;;
23115;SDS011;11727;52.134;5.052;2023-04-08T14:11:52;10.95;;;4.93;;
23115;SDS011;11727;52.134;5.052;2023-04-08T14:14:17;11.05;;;4.93;;
23115;SDS011;11727;52.134;5.052;2023-04-08T14:16:43;9.27;;;4.45;;
23115;SDS011;11727;52.134;5.052;2023-04-08T14:19:08;8.75;;;5.03;;
23115;SDS011;11727;52.134;5.052;2023-04-08T14:21:34;9.60;;;4.65;;
23115;SDS011;11727;52.134;5.052;2023-04-08T14:24:02;12.27;;;5.28;;
23115;SDS011;11727;52.134;5.052;2023-04-08T14:26:28;8.65;;;4.88;;
23115;SDS011;11727;52.134;5.052;2023-04-08T14:28:53;10.77;;;5.93;;
23115;SDS011;11727;52.134;5.052;2023-04-08T14:31:19;10.95;;;5.78;;
23115;SDS011;11727;52.134;5.052;2023-04-08T14:33:45;9.32;;;5.55;;
23115;SDS011;11727;52.134;5.052;2023-04-08T14:36:10;10.88;;;6.07;;
23115;SDS011;11727;52.134;5.052;2023-04-08T14:38:37;12.00;;;5.88;;
23115;SDS011;11727;52.134;5.052;2023-04-08T14:41:03;10.23;;;5.63;;
23115;SDS011;11727;52.134;5.052;2023-04-08T14:43:29;10.75;;;5.85;;
23115;SDS011;11727;52.134;5.052;2023-04-08T14:45:54;8.75;;;5.57;;
23115;SDS011;11727;52.134;5.052;2023-04-08T14:48:20;15.73;;;6.80;;
23115;SDS011;11727;52.134;5.052;2023-04-08T14:50:46;11.25;;;6.25;;
23115;SDS011;11727;52.134;5.052;2023-04-08T14:53:11;10.82;;;5.40;;
23115;SDS011;11727;52.134;5.052;2023-04-08T14:55:37;12.95;;;6.03;;
23115;SDS011;11727;52.134;5.052;2023-04-08T14:58:03;11.00;;;6.40;;
23115;SDS011;11727;52.134;5.052;2023-04-08T15:00:29;10.25;;;5.78;;